x

Port Colborne (45142) Wave Buoy

9:00am - Mon 25th May 2015 All times are CDT. -5 hours from GMT.

  • Sig Wave height 0.7ft
  • Peak Period 3s
  • Wind
    11mph
  • Sea Temp 51°f
  • Air Temp 58°f
  • Sea Pressure 1019mb
  • Port Colborne
  • Port Colborne

More Historic Weather Station data

Upgrade to MSW Pro to gain access to the past 30 days of data for over 8000 Wavebouys and Weather Stations around the globe.

Join Pro

Comparision Forecast

View Surf forecast
   
Mon 05/25 9:00am 0.7ft 3s 11
mph
1019mb 51f 58f
8:00am 0.7ft 3s 9
mph
1019.4mb 51f 56f
7:00am 0.3ft 2s 9 11 mph 1019.3mb 50f 57f
6:00am  -  2s 9
mph
1019.4mb 50f 57f
5:00am  -  2s 7
mph
1019.3mb 51f 58f
4:00am 0.3ft 4s 7
mph
1019.3mb 51f 56f
3:00am 0.3ft 2s 9
mph
1019.6mb 51f 57f
2:00am 0.3ft 2s 9
mph
1019.9mb 51f 58f
1:00am 0.3ft 3s 9
mph
1020.4mb 50f 58f
12:00am 0.3ft 3s 9
mph
1020.8mb 50f 58f
Sun 05/24 11:00pm 0.3ft 3s 9
mph
1021.1mb 50f 56f
10:00pm 0.7ft 3s 7
mph
1021.3mb 50f 60f
9:00pm 0.7ft 3s 9 11 mph 1021.7mb 51f 58f
8:00pm 0.7ft 3s 7
mph
1021.6mb 51f 56f
7:00pm 0.7ft 3s 9
mph
1021.9mb 51f 56f
6:00pm 0.7ft 3s 9 11 mph 1022mb 51f 55f
5:00pm 1ft 3s 9
mph
1022.3mb 51f 55f
4:00pm 1ft 3s 13
mph
1022.4mb 51f 58f
3:00pm 1ft 3s 11 13 mph 1023mb 51f 57f
2:00pm 1ft 3s 13 16 mph 1023.6mb 51f 57f
1:00pm 0.7ft 2s 13
mph
1024.2mb 51f 57f
12:00pm 0.3ft 2s 11
mph
1025mb 51f 56f
11:00am 0.3ft 4s 9 11 mph 1025.2mb 51f 56f
10:00am 0.3ft 4s 7
mph
1025.3mb 51f 56f
9:00am 0.3ft 2s 2 4 mph 1025.6mb 50f 53f
8:00am 0.7ft 4s 9
mph
1026mb 49f 53f
7:00am 0.7ft 3s 9
mph
1026.4mb 49f 53f
6:00am 1ft 3s 11
mph
1026.3mb 49f 52f
5:00am 0.7ft 2s 11 13 mph 1025.4mb 49f 53f
4:00am 0.7ft 2s 9
mph
1024.9mb 49f 52f
3:00am 0.7ft 2s 9 11 mph 1025mb 49f 53f
2:00am 0.3ft 2s 9 11 mph 1025.1mb 49f 53f
1:00am 0.3ft 2s 9 11 mph 1025.6mb 49f 52f
12:00am 0.3ft 2s 7 9 mph 1025.9mb 49f 53f
Sat 05/23 11:00pm 0.3ft 3s 9
mph
1026mb 49f 53f
10:00pm 0.3ft 3s 4
mph
1026.1mb 49f 51f
9:00pm 0.3ft 4s 7 9 mph 1026.1mb 49f 52f
8:00pm 0.3ft 2s 7
mph
1026.1mb 49f 51f
7:00pm 0.3ft 2s 9 11 mph 1026.4mb 49f 53f
6:00pm 0.3ft 4s 11 13 mph 1026.7mb 50f 53f
5:00pm 0.3ft 2s 7 9 mph 1027.4mb 50f 52f
4:00pm 0.3ft 4s 11 13 mph 1028.2mb 50f 53f
3:00pm 0.3ft 4s 9
mph
1029mb 50f 52f
2:00pm 0.3ft 4s 7 9 mph 1029.6mb 49f 50f
1:00pm 0.3ft 5s 7 9 mph 1030.1mb 49f 49f
12:00pm 0.7ft 5s 7 9 mph 1030.6mb 49f 49f
11:00am 0.7ft 2s 7 9 mph 1031mb 49f 48f
10:00am 0.7ft 3s 7
mph
1031.3mb 48f 47f
9:00am 0.7ft 2s 9
mph
1031.4mb 48f 47f
8:00am 0.7ft 4s 9 11 mph 1031.3mb 48f 47f
7:00am 0.7ft 4s 11 13 mph 1030.6mb 47f 45f
6:00am 1ft 4s 11
mph
1030mb 47f 44f
5:00am 1ft 4s 11
mph
1029mb 47f 44f
4:00am 1ft 4s 9 11 mph 1028.4mb 47f 45f
3:00am 1ft 4s 7 9 mph 1028.5mb 47f 45f
2:00am 1ft 4s 4
mph
1028.5mb 47f 46f
1:00am 1.3ft 4s 4 7 mph 1028mb 47f 46f
12:00am 1.6ft 5s 11 13 mph 1027.3mb 47f 46f
Fri 05/22 11:00pm 2ft 5s 11 13 mph 1026.8mb 47f 46f
10:00pm 2.5ft 5s 13 16 mph 1026.3mb 47f 47f
9:00pm 3ft 5s 9
mph
1026mb 47f 50f
8:00pm 3ft 5s 9
mph
1025mb 47f 51f
7:00pm 3.5ft 5s 16 18 mph 1024.1mb 47f 51f
6:00pm 3.5ft 5s 13 18 mph 1023mb 48f 51f
5:00pm 3.5ft 5s 16 20 mph 1022mb 48f 53f
4:00pm 4.5ft 5s 16 18 mph 1021mb 48f 51f
3:00pm 4ft 4s 22 25 mph 1020.2mb 48f 49f
2:00pm 2.5ft 4s 22 29 mph 1019.5mb 48f 49f
1:00pm 2.5ft 5s 20 22 mph 1019.5mb 48f 48f
12:00pm 2ft 5s 16 18 mph 1019.4mb 48f 47f
11:00am 2ft 5s 16 18 mph 1018.9mb 48f 48f
10:00am 2ft 5s 13
mph
1018.6mb 48f 47f
9:00am 2ft 5s 9 11 mph 1018.3mb 48f 47f
8:00am 2ft 5s 11 13 mph 1017.8mb 48f 47f
7:00am 2.5ft 5s 11 13 mph 1017mb 48f 47f
6:00am 2.5ft 5s 11 13 mph 1016.2mb 47f 48f
5:00am 2.5ft 5s 13 18 mph 1015.4mb 47f 49f
4:00am 3ft 5s 11 13 mph 1014.5mb 48f 49f
3:00am 3.5ft 5s 13 16 mph 1013.8mb 48f 49f
2:00am 4ft 5s 18 20 mph 1013.2mb 48f 49f
1:00am 3.5ft 5s 22 29 mph 1012.6mb 48f 50f
12:00am 3.5ft 4s 20 25 mph 1012.7mb 48f 50f
Thu 05/21 11:00pm 3.5ft 4s 20 25 mph 1012.9mb 48f 50f
10:00pm 3.5ft 5s 20 25 mph 1013mb 48f 49f
9:00pm 3.5ft 4s 20 25 mph 1013.1mb 48f 49f
8:00pm 3.5ft 4s 20 25 mph 1012.9mb 48f 48f
7:00pm 3ft 4s 20 25 mph 1012.8mb 48f 49f
6:00pm 2.5ft 4s 20 25 mph 1012.8mb 48f 50f
5:00pm 2ft 4s 20 22 mph 1012.8mb 49f 50f
4:00pm 1.6ft 3s 18 20 mph 1012.7mb 49f 50f